createdAt,value
2018-07-24T00:00:13.216Z,2.30
2018-07-24T00:02:42.776Z,1.90
2018-07-24T00:05:12.699Z,2.10
2018-07-24T00:07:42.536Z,1.90
2018-07-24T00:10:11.432Z,2.10
2018-07-24T00:12:40.533Z,2.20
2018-07-24T00:15:09.838Z,2.60
2018-07-24T00:17:38.427Z,1.90
2018-07-24T00:20:07.627Z,1.93
2018-07-24T00:22:36.232Z,1.80
2018-07-24T00:25:04.935Z,2.07
2018-07-24T00:27:33.433Z,2.30
2018-07-24T00:30:02.053Z,1.87
2018-07-24T00:32:30.689Z,1.90
2018-07-24T00:34:59.196Z,1.63
2018-07-24T00:37:27.654Z,2.20
2018-07-24T00:39:55.807Z,1.97
2018-07-24T00:42:24.224Z,1.80
2018-07-24T00:44:52.843Z,1.90
2018-07-24T00:47:21.287Z,2.17
2018-07-24T00:49:49.720Z,2.13
2018-07-24T00:52:18.316Z,1.80
2018-07-24T00:54:46.771Z,2.27
2018-07-24T00:57:15.163Z,1.77
2018-07-24T00:59:43.732Z,1.87
2018-07-24T01:02:12.244Z,2.10
2018-07-24T01:04:40.888Z,1.90
2018-07-24T01:07:09.285Z,1.93
2018-07-24T01:09:38.110Z,1.70
2018-07-24T01:12:06.908Z,1.67
2018-07-24T01:14:35.527Z,2.00
2018-07-24T01:17:04.029Z,2.00
2018-07-24T01:19:32.613Z,2.20
2018-07-24T01:22:01.053Z,2.00
2018-07-24T01:24:29.583Z,2.00
2018-07-24T01:26:58.060Z,2.20
2018-07-24T01:29:26.477Z,2.10
2018-07-24T01:31:54.755Z,2.10
2018-07-24T01:34:23.337Z,1.90
2018-07-24T01:36:51.872Z,1.93
2018-07-24T01:39:20.427Z,1.73
2018-07-24T01:41:49.140Z,2.13
2018-07-24T01:44:17.770Z,1.83
2018-07-24T01:46:46.320Z,1.80
2018-07-24T01:49:14.881Z,2.10
2018-07-24T01:51:43.467Z,1.80
2018-07-24T01:54:12.950Z,1.80
2018-07-24T01:56:41.432Z,1.90
2018-07-24T01:59:09.993Z,1.90
2018-07-24T02:01:38.545Z,1.73
2018-07-24T02:04:07.076Z,2.00
2018-07-24T02:06:36.099Z,1.80
2018-07-24T02:09:07.512Z,1.97
2018-07-24T02:11:36.130Z,1.70
2018-07-24T02:14:04.616Z,1.87
2018-07-24T02:16:33.404Z,1.70
2018-07-24T02:19:01.960Z,2.00
2018-07-24T02:21:30.795Z,1.90
2018-07-24T02:23:59.289Z,1.70
2018-07-24T02:26:27.737Z,1.83
2018-07-24T02:28:56.181Z,1.93
2018-07-24T02:31:24.316Z,1.90
2018-07-24T02:33:52.886Z,2.00
2018-07-24T02:36:21.402Z,2.00
2018-07-24T02:38:49.904Z,1.80
2018-07-24T02:41:18.541Z,2.00
2018-07-24T02:43:46.996Z,1.80
2018-07-24T02:46:15.540Z,1.97
2018-07-24T02:48:44.144Z,2.00
2018-07-24T02:51:12.601Z,1.97
2018-07-24T02:53:41.076Z,1.80
2018-07-24T02:56:09.589Z,1.70
2018-07-24T02:58:38.271Z,2.10
2018-07-24T03:01:07.006Z,1.70
2018-07-24T03:03:35.389Z,2.23
2018-07-24T03:06:03.950Z,1.80
2018-07-24T03:08:32.461Z,1.90
2018-07-24T03:11:00.910Z,1.80
2018-07-24T03:13:29.447Z,1.63
2018-07-24T03:15:57.992Z,2.10
2018-07-24T03:18:26.501Z,2.00
2018-07-24T03:20:55.097Z,2.00
2018-07-24T03:23:23.521Z,1.90
2018-07-24T03:25:51.977Z,1.93
2018-07-24T03:28:20.507Z,1.60
2018-07-24T03:30:48.992Z,1.93
2018-07-24T03:33:17.414Z,2.00
2018-07-24T03:35:45.946Z,1.77
2018-07-24T03:38:14.344Z,1.77
2018-07-24T03:40:42.804Z,1.90
2018-07-24T03:43:11.259Z,2.00
2018-07-24T03:45:39.995Z,2.00
2018-07-24T03:48:08.484Z,1.90
2018-07-24T03:50:36.933Z,1.70
2018-07-24T03:53:05.599Z,1.90
2018-07-24T03:55:34.621Z,1.73
2018-07-24T03:58:03.070Z,1.80
2018-07-24T04:00:31.614Z,1.73
2018-07-24T04:03:00.085Z,1.83
2018-07-24T04:05:28.513Z,1.90
2018-07-24T04:07:56.912Z,1.73
2018-07-24T04:10:25.432Z,1.97
2018-07-24T04:12:53.936Z,1.80
2018-07-24T04:15:22.340Z,1.97
2018-07-24T04:17:50.789Z,1.57
2018-07-24T04:20:19.268Z,1.60
2018-07-24T04:22:47.720Z,1.70
2018-07-24T04:25:16.261Z,1.80
2018-07-24T04:27:44.775Z,1.90
2018-07-24T04:30:13.216Z,1.60
2018-07-24T04:32:41.415Z,1.60
2018-07-24T04:35:09.817Z,1.70
2018-07-24T04:37:38.054Z,1.90
2018-07-24T04:40:07.053Z,1.63
2018-07-24T04:42:35.746Z,1.73
2018-07-24T04:45:04.667Z,1.90
2018-07-24T04:47:33.208Z,1.90
2018-07-24T04:50:01.702Z,1.80
2018-07-24T04:52:30.322Z,1.77
2018-07-24T04:54:58.751Z,1.77
2018-07-24T04:57:27.418Z,1.80
2018-07-24T04:59:55.865Z,1.60
2018-07-24T05:02:24.410Z,1.80
2018-07-24T05:04:52.893Z,1.43
2018-07-24T05:07:21.088Z,1.60
2018-07-24T05:09:49.664Z,1.57
2018-07-24T05:12:18.165Z,1.83
2018-07-24T05:14:46.656Z,1.63
2018-07-24T05:17:15.245Z,1.93
2018-07-24T05:19:43.704Z,1.63
2018-07-24T05:22:12.149Z,1.77
2018-07-24T05:24:40.551Z,1.63
2018-07-24T05:27:08.859Z,1.80
2018-07-24T05:29:37.479Z,1.60
2018-07-24T05:32:06.212Z,1.60
2018-07-24T05:34:34.640Z,1.73
2018-07-24T05:37:03.155Z,1.80
2018-07-24T05:39:31.590Z,1.80
2018-07-24T05:42:00.037Z,1.60
2018-07-24T05:44:28.472Z,1.50
2018-07-24T05:46:56.941Z,1.87
2018-07-24T05:49:25.455Z,1.50
2018-07-24T05:51:53.914Z,1.67
2018-07-24T05:54:22.384Z,1.67
2018-07-24T05:56:50.804Z,1.47
2018-07-24T05:59:19.325Z,1.40
2018-07-24T06:01:47.870Z,1.60
2018-07-24T06:04:16.009Z,1.60
2018-07-24T06:06:44.473Z,1.50
2018-07-24T06:09:13.040Z,1.60
2018-07-24T06:11:41.441Z,1.50
2018-07-24T06:14:09.852Z,1.97
2018-07-24T06:16:38.449Z,1.50
2018-07-24T06:19:06.997Z,1.70
2018-07-24T06:21:35.431Z,1.60
2018-07-24T06:24:03.919Z,1.60
2018-07-24T06:26:32.433Z,1.27
2018-07-24T06:29:00.872Z,1.90
2018-07-24T06:31:29.397Z,1.50
2018-07-24T06:33:57.675Z,1.50
2018-07-24T06:36:26.105Z,1.53
2018-07-24T06:38:54.605Z,1.70
2018-07-24T06:41:23.224Z,1.30
2018-07-24T06:43:51.731Z,1.30
2018-07-24T06:46:20.685Z,1.60
2018-07-24T06:48:49.170Z,1.60
2018-07-24T06:51:17.596Z,1.50
2018-07-24T06:53:46.090Z,1.50
2018-07-24T06:56:14.508Z,1.63
2018-07-24T06:58:43.184Z,1.50
2018-07-24T07:01:11.581Z,1.40
2018-07-24T07:03:40.340Z,1.63
2018-07-24T07:06:08.777Z,1.67
2018-07-24T07:08:37.296Z,1.37
2018-07-24T07:11:05.727Z,1.60
2018-07-24T07:13:34.262Z,1.70
2018-07-24T07:16:02.834Z,2.00
2018-07-24T07:18:31.280Z,1.60
2018-07-24T07:20:59.887Z,1.50
2018-07-24T07:23:28.618Z,1.53
2018-07-24T07:25:57.439Z,1.47
2018-07-24T07:28:26.059Z,1.30
2018-07-24T07:30:54.563Z,1.47
2018-07-24T07:33:23.045Z,1.80
2018-07-24T07:35:51.737Z,1.87
2018-07-24T07:38:20.252Z,1.57
2018-07-24T07:40:48.772Z,1.70
2018-07-24T07:43:17.465Z,1.60
2018-07-24T07:45:45.964Z,1.60
2018-07-24T07:48:14.416Z,1.60
2018-07-24T07:50:42.858Z,1.53
2018-07-24T07:53:11.424Z,1.70
2018-07-24T07:55:40.402Z,1.83
2018-07-24T07:58:08.892Z,1.80
2018-07-24T08:00:37.378Z,1.40
2018-07-24T08:03:06.421Z,1.60
2018-07-24T08:05:34.907Z,1.60
2018-07-24T08:08:03.251Z,1.63
2018-07-24T08:10:31.713Z,1.60
2018-07-24T08:13:01.289Z,1.87
2018-07-24T08:15:29.881Z,1.60
2018-07-24T08:17:58.864Z,1.80
2018-07-24T08:20:27.535Z,1.60
2018-07-24T08:22:56.220Z,1.10
2018-07-24T08:25:24.668Z,1.57
2018-07-24T08:27:54.177Z,1.70
2018-07-24T08:30:22.788Z,1.63
2018-07-24T08:32:51.719Z,1.70
2018-07-24T08:35:20.283Z,1.37
2018-07-24T08:37:49.398Z,1.70
2018-07-24T08:40:17.871Z,1.77
2018-07-24T08:42:46.567Z,1.77
2018-07-24T08:45:15.088Z,1.60
2018-07-24T08:47:45.733Z,1.70
2018-07-24T08:50:14.308Z,1.70
2018-07-24T08:52:42.818Z,1.43
2018-07-24T08:55:11.799Z,1.50
2018-07-24T08:57:39.995Z,1.50
2018-07-24T09:00:08.273Z,1.80
2018-07-24T09:02:36.669Z,1.70
2018-07-24T09:05:05.511Z,1.77
2018-07-24T09:07:33.961Z,1.70
2018-07-24T09:10:02.732Z,1.37
2018-07-24T09:12:31.228Z,1.67
2018-07-24T09:14:59.690Z,1.33
2018-07-24T09:17:28.144Z,1.50
2018-07-24T09:19:56.548Z,1.77
2018-07-24T09:22:25.079Z,1.60
2018-07-24T09:24:53.508Z,1.57
2018-07-24T09:27:21.956Z,1.60
2018-07-24T09:29:50.413Z,1.67
2018-07-24T09:32:19.000Z,1.53
2018-07-24T09:34:47.485Z,1.70
2018-07-24T09:37:16.179Z,1.80
2018-07-24T09:39:44.645Z,1.63
2018-07-24T09:42:13.070Z,2.00
2018-07-24T09:44:41.496Z,1.73
2018-07-24T09:47:10.336Z,1.40
2018-07-24T09:49:39.023Z,1.80
2018-07-24T09:52:07.555Z,1.50
2018-07-24T09:54:35.794Z,1.60
2018-07-24T09:57:04.356Z,1.60
2018-07-24T09:59:32.871Z,1.10
2018-07-24T10:02:01.313Z,1.67
2018-07-24T10:04:29.934Z,1.90
2018-07-24T10:06:58.620Z,1.70
2018-07-24T10:09:27.225Z,1.50
2018-07-24T10:11:57.151Z,1.90
2018-07-24T10:14:26.846Z,1.60
2018-07-24T10:16:58.100Z,1.57
2018-07-24T10:19:28.204Z,1.67
2018-07-24T10:21:56.750Z,1.93
2018-07-24T10:24:25.457Z,1.60
2018-07-24T10:26:53.890Z,1.80
2018-07-24T10:29:22.351Z,1.87
2018-07-24T10:31:51.073Z,1.77
2018-07-24T10:34:20.315Z,1.90
2018-07-24T10:36:48.886Z,1.70
2018-07-24T10:39:17.479Z,1.70
2018-07-24T10:41:45.843Z,1.50
2018-07-24T10:44:14.393Z,1.57
2018-07-24T10:46:42.927Z,1.37
2018-07-24T10:49:13.352Z,1.70
2018-07-24T10:51:44.030Z,1.80
2018-07-24T10:54:13.053Z,1.20
2018-07-24T10:56:41.990Z,1.70
2018-07-24T10:59:10.976Z,1.97
2018-07-24T11:01:40.040Z,1.87
2018-07-24T11:04:08.566Z,1.80
2018-07-24T11:06:37.994Z,1.83
2018-07-24T11:09:08.301Z,1.90
2018-07-24T11:11:36.914Z,1.77
2018-07-24T11:14:05.344Z,1.90
2018-07-24T11:16:33.767Z,1.73
2018-07-24T11:19:04.626Z,1.73
2018-07-24T11:21:36.488Z,1.60
2018-07-24T11:24:08.627Z,1.73
2018-07-24T11:26:39.254Z,1.60
2018-07-24T11:29:10.719Z,1.80
2018-07-24T11:31:39.596Z,1.73
2018-07-24T11:34:08.306Z,1.87
2018-07-24T11:36:36.913Z,2.00
2018-07-24T11:39:08.065Z,1.80
2018-07-24T11:41:36.777Z,1.93
2018-07-24T11:44:05.287Z,1.83
2018-07-24T11:46:34.206Z,2.10
2018-07-24T11:49:02.804Z,2.10
2018-07-24T11:51:31.219Z,2.47
2018-07-24T11:53:59.819Z,1.83
2018-07-24T11:56:28.282Z,1.67
2018-07-24T11:58:56.861Z,1.90
2018-07-24T12:01:25.290Z,1.90
2018-07-24T12:03:53.835Z,1.80
2018-07-24T12:06:22.465Z,1.80
2018-07-24T12:08:50.961Z,1.70
2018-07-24T12:11:19.371Z,1.90
2018-07-24T12:13:47.803Z,1.77
2018-07-24T12:16:16.390Z,2.00
2018-07-24T12:18:44.976Z,1.83
2018-07-24T12:21:13.448Z,1.93
2018-07-24T12:23:41.890Z,1.63
2018-07-24T12:26:10.386Z,1.90
2018-07-24T12:28:38.985Z,1.90
2018-07-24T12:31:07.469Z,1.57
2018-07-24T12:33:36.942Z,2.23
2018-07-24T12:36:05.527Z,1.70
2018-07-24T12:38:33.929Z,2.00
2018-07-24T12:41:02.529Z,2.00
2018-07-24T12:43:31.174Z,2.37
2018-07-24T12:45:59.669Z,1.70
2018-07-24T12:48:28.061Z,1.97
2018-07-24T12:50:56.619Z,2.00
2018-07-24T12:53:25.100Z,2.50
2018-07-24T12:55:53.536Z,2.10
2018-07-24T12:58:22.036Z,2.03
2018-07-24T13:00:50.485Z,2.37
2018-07-24T13:03:19.027Z,2.10
2018-07-24T13:05:47.715Z,2.00
2018-07-24T13:08:16.233Z,2.10
2018-07-24T13:10:44.725Z,2.20
2018-07-24T13:13:13.208Z,1.87
2018-07-24T13:15:41.700Z,2.10
2018-07-24T13:18:10.223Z,2.10
2018-07-24T13:20:39.087Z,2.20
2018-07-24T13:23:07.682Z,1.97
2018-07-24T13:25:36.334Z,2.30
2018-07-24T13:28:05.011Z,2.00
2018-07-24T13:30:33.211Z,1.60
2018-07-24T13:33:01.650Z,2.27
2018-07-24T13:35:30.165Z,2.23
2018-07-24T13:37:58.837Z,2.30
2018-07-24T13:40:27.289Z,2.40
2018-07-24T13:42:56.107Z,2.03
2018-07-24T13:45:24.570Z,2.63
2018-07-24T13:47:53.117Z,2.07
2018-07-24T13:50:21.686Z,2.00
2018-07-24T13:52:50.119Z,2.00
2018-07-24T13:55:18.500Z,2.40
2018-07-24T13:57:47.007Z,1.97
2018-07-24T14:00:15.595Z,1.90
2018-07-24T14:02:44.271Z,1.93
2018-07-24T14:05:12.761Z,1.80
2018-07-24T14:07:41.496Z,2.47
2018-07-24T14:10:10.021Z,2.23
2018-07-24T14:12:38.465Z,2.07
2018-07-24T14:15:06.667Z,2.00
2018-07-24T14:17:35.211Z,1.97
2018-07-24T14:20:03.780Z,2.17
2018-07-24T14:22:32.377Z,2.43
2018-07-24T14:25:00.863Z,2.17
2018-07-24T14:27:29.340Z,2.07
2018-07-24T14:29:57.885Z,2.30
2018-07-24T14:32:26.349Z,2.93
2018-07-24T14:34:54.817Z,2.80
2018-07-24T14:37:23.389Z,2.17
2018-07-24T14:39:51.548Z,2.77
2018-07-24T14:42:20.047Z,2.73
2018-07-24T14:44:48.555Z,2.23
2018-07-24T14:47:17.079Z,2.53
2018-07-24T14:49:45.661Z,2.43
2018-07-24T14:52:14.074Z,2.40
2018-07-24T14:54:42.624Z,2.40
2018-07-24T14:57:11.221Z,2.03
2018-07-24T14:59:40.054Z,2.33
2018-07-24T15:02:08.509Z,2.77
2018-07-24T15:04:38.245Z,2.73
2018-07-24T15:07:06.864Z,2.20
2018-07-24T15:09:35.483Z,1.80
2018-07-24T15:12:04.020Z,2.00
2018-07-24T15:14:32.573Z,2.10
2018-07-24T15:17:01.112Z,2.87
2018-07-24T15:19:29.314Z,2.00
2018-07-24T15:21:57.775Z,2.40
2018-07-24T15:24:26.290Z,2.27
2018-07-24T15:26:54.828Z,2.37
2018-07-24T15:29:23.303Z,2.70
2018-07-24T15:31:51.719Z,2.07
2018-07-24T15:34:20.462Z,2.30
2018-07-24T15:36:49.112Z,2.43
2018-07-24T15:39:17.585Z,2.30
2018-07-24T15:41:46.062Z,2.17
2018-07-24T15:44:14.497Z,2.40
2018-07-24T15:46:43.070Z,2.23
2018-07-24T15:49:11.474Z,2.30
2018-07-24T15:51:40.260Z,2.30
2018-07-24T15:54:08.685Z,2.43
2018-07-24T15:56:38.334Z,2.50
2018-07-24T15:59:06.859Z,2.20
2018-07-24T16:01:35.401Z,2.30
2018-07-24T16:04:03.938Z,2.20
2018-07-24T16:06:32.545Z,2.40
2018-07-24T16:09:01.082Z,2.53
2018-07-24T16:11:29.593Z,2.00
2018-07-24T16:13:58.331Z,2.60
2018-07-24T16:16:26.949Z,2.33
2018-07-24T16:18:55.415Z,2.37
2018-07-24T16:21:23.897Z,2.57
2018-07-24T16:23:52.301Z,2.10
2018-07-24T16:26:20.839Z,2.50
2018-07-24T16:28:49.485Z,2.77
2018-07-24T16:31:17.915Z,2.53
2018-07-24T16:33:46.408Z,2.47
2018-07-24T16:36:15.146Z,2.40
2018-07-24T16:38:43.593Z,2.37
2018-07-24T16:41:12.100Z,2.33
2018-07-24T16:43:40.765Z,2.00
2018-07-24T16:46:09.189Z,2.50
2018-07-24T16:48:37.975Z,2.50
2018-07-24T16:51:06.614Z,2.53
2018-07-24T16:53:35.191Z,2.50
2018-07-24T16:56:03.392Z,2.20
2018-07-24T16:58:32.228Z,2.50
2018-07-24T17:01:00.737Z,2.60
2018-07-24T17:03:29.329Z,2.00
2018-07-24T17:05:58.033Z,2.23
2018-07-24T17:08:26.577Z,2.70
2018-07-24T17:10:55.067Z,2.50
2018-07-24T17:13:23.461Z,2.20
2018-07-24T17:15:51.908Z,2.10
2018-07-24T17:18:20.516Z,2.80
2018-07-24T17:20:49.245Z,2.53
2018-07-24T17:23:17.752Z,2.43
2018-07-24T17:25:46.182Z,2.43
2018-07-24T17:28:14.888Z,2.57
2018-07-24T17:30:43.365Z,3.00
2018-07-24T17:33:12.042Z,2.37
2018-07-24T17:35:41.060Z,2.40
2018-07-24T17:38:09.514Z,2.27
2018-07-24T17:40:37.967Z,2.33
2018-07-24T17:43:06.363Z,2.50
2018-07-24T17:45:34.919Z,2.20
2018-07-24T17:48:03.422Z,2.10
2018-07-24T17:50:31.971Z,2.00
2018-07-24T17:53:00.520Z,2.60
2018-07-24T17:55:29.012Z,2.37
2018-07-24T17:57:57.925Z,2.43
2018-07-24T18:00:26.416Z,2.77
2018-07-24T18:02:54.863Z,2.83
2018-07-24T18:07:58.682Z,2.80
2018-07-24T18:10:28.024Z,2.97
2018-07-24T18:12:57.210Z,2.80
2018-07-24T18:15:27.047Z,2.50
2018-07-24T18:17:56.125Z,2.80
2018-07-24T18:20:27.129Z,2.63
2018-07-24T18:22:56.982Z,3.10
2018-07-24T18:25:26.511Z,2.63
2018-07-24T18:27:56.374Z,2.63
2018-07-24T18:30:26.419Z,2.70
2018-07-24T18:32:56.914Z,3.00
2018-07-24T18:35:26.610Z,2.47
2018-07-24T18:37:55.302Z,2.60
2018-07-24T18:40:23.697Z,2.53
2018-07-24T18:42:52.183Z,2.50
2018-07-24T18:45:20.900Z,3.33
2018-07-24T18:47:49.445Z,2.63
2018-07-24T18:50:17.928Z,2.57
2018-07-24T18:52:46.432Z,2.70
2018-07-24T18:55:14.964Z,2.40
2018-07-24T18:57:43.532Z,2.67
2018-07-24T19:00:12.204Z,3.00
2018-07-24T19:02:41.075Z,2.80
2018-07-24T19:05:09.723Z,2.57
2018-07-24T19:07:38.528Z,2.60
2018-07-24T19:10:06.994Z,2.57
2018-07-24T19:12:35.700Z,2.70
2018-07-24T19:15:04.582Z,2.23
2018-07-24T19:17:33.075Z,2.50
2018-07-24T19:20:01.625Z,2.80
2018-07-24T19:22:30.243Z,2.70
2018-07-24T19:24:58.811Z,2.53
2018-07-24T19:27:27.696Z,2.70
2018-07-24T19:29:56.550Z,2.50
2018-07-24T19:32:25.211Z,2.53
2018-07-24T19:34:53.909Z,2.40
2018-07-24T19:37:22.474Z,2.70
2018-07-24T19:39:50.982Z,2.67
2018-07-24T19:42:19.637Z,2.83
2018-07-24T19:44:48.313Z,2.47
2018-07-24T19:47:16.849Z,2.53
2018-07-24T19:49:45.391Z,2.70
2018-07-24T19:52:13.984Z,2.60
2018-07-24T19:54:42.619Z,2.50
2018-07-24T19:57:11.588Z,2.73
2018-07-24T19:59:40.171Z,2.70
2018-07-24T20:02:09.966Z,2.10
2018-07-24T20:04:39.682Z,2.40
2018-07-24T20:07:08.353Z,2.40
2018-07-24T20:09:36.884Z,2.70
2018-07-24T20:12:05.405Z,2.93
2018-07-24T20:14:33.902Z,2.47
2018-07-24T20:17:02.581Z,2.80
2018-07-24T20:19:31.144Z,2.67
2018-07-24T20:21:59.981Z,2.37
2018-07-24T20:24:28.799Z,2.50
2018-07-24T20:26:57.754Z,2.43
2018-07-24T20:29:26.632Z,2.60
2018-07-24T20:31:55.456Z,2.53
2018-07-24T20:34:24.221Z,2.73
2018-07-24T20:36:52.753Z,2.80
2018-07-24T20:39:21.605Z,2.33
2018-07-24T20:41:50.395Z,2.60
2018-07-24T20:44:18.942Z,2.60
2018-07-24T20:46:47.594Z,2.30
2018-07-24T20:49:16.333Z,2.50
2018-07-24T20:51:45.072Z,2.33
2018-07-24T20:54:13.596Z,2.47
2018-07-24T20:56:42.211Z,2.50
2018-07-24T20:59:11.361Z,3.63
2018-07-24T21:01:40.321Z,2.57
2018-07-24T21:04:08.887Z,2.60
2018-07-24T21:06:37.344Z,2.40
2018-07-24T21:09:09.082Z,2.30
2018-07-24T21:11:38.840Z,2.90
2018-07-24T21:14:07.886Z,2.13
2018-07-24T21:16:38.270Z,2.73
2018-07-24T21:19:08.513Z,3.00
2018-07-24T21:21:38.716Z,2.73
2018-07-24T21:24:07.309Z,2.50
2018-07-24T21:26:37.111Z,2.30
2018-07-24T21:29:06.325Z,2.40
2018-07-24T21:31:36.550Z,2.50
2018-07-24T21:34:05.137Z,2.53
2018-07-24T21:36:34.424Z,2.40
2018-07-24T21:39:02.753Z,2.43
2018-07-24T21:41:31.885Z,2.50
2018-07-24T21:44:00.525Z,2.50
2018-07-24T21:46:29.436Z,2.30
2018-07-24T21:48:58.212Z,2.70
2018-07-24T21:51:28.440Z,2.63
2018-07-24T21:53:58.188Z,2.57
2018-07-24T21:56:27.804Z,2.07
2018-07-24T21:58:57.237Z,2.47
2018-07-24T22:01:27.454Z,2.20
2018-07-24T22:03:57.473Z,2.30
2018-07-24T22:06:27.189Z,2.60
2018-07-24T22:08:56.925Z,2.60
2018-07-24T22:11:26.648Z,2.33
2018-07-24T22:13:56.472Z,2.43
2018-07-24T22:16:27.196Z,2.47
2018-07-24T22:18:55.795Z,2.10
2018-07-24T22:21:24.702Z,2.20
2018-07-24T22:23:55.269Z,2.60
2018-07-24T22:26:24.697Z,2.27
2018-07-24T22:28:54.750Z,2.37
2018-07-24T22:31:23.238Z,2.43
2018-07-24T22:33:52.912Z,2.20
2018-07-24T22:36:21.552Z,2.47
2018-07-24T22:38:50.122Z,2.13
2018-07-24T22:41:20.009Z,2.33
2018-07-24T22:43:50.056Z,2.30
2018-07-24T22:46:19.040Z,2.40
2018-07-24T22:48:49.426Z,2.30
2018-07-24T22:51:19.230Z,2.40
2018-07-24T22:53:51.271Z,2.70
2018-07-24T22:56:20.706Z,2.10
2018-07-24T22:58:51.713Z,2.43
2018-07-24T23:01:20.776Z,1.90
2018-07-24T23:03:50.925Z,2.57
2018-07-24T23:06:21.267Z,2.43
2018-07-24T23:08:50.401Z,2.57
2018-07-24T23:11:19.901Z,1.93
2018-07-24T23:13:49.781Z,2.10
2018-07-24T23:16:19.487Z,2.20
2018-07-24T23:18:48.960Z,2.00
2018-07-24T23:21:18.232Z,2.10
2018-07-24T23:23:47.453Z,2.40
2018-07-24T23:26:17.339Z,2.10
2018-07-24T23:28:47.050Z,2.47
2018-07-24T23:31:15.610Z,2.00
2018-07-24T23:33:44.222Z,1.90
2018-07-24T23:36:12.724Z,2.17
2018-07-24T23:38:41.401Z,2.00
2018-07-24T23:41:10.555Z,2.23
2018-07-24T23:43:39.231Z,2.30
2018-07-24T23:46:07.912Z,1.70
2018-07-24T23:48:36.537Z,1.80
2018-07-24T23:51:05.121Z,2.07
2018-07-24T23:53:33.564Z,1.93
2018-07-24T23:56:01.833Z,2.20
2018-07-24T23:58:30.721Z,1.80
